Time;durP1;ratioP1;P1;durP2;ratioP2;P2;SDS_P1;SDS_P2;PMS_P1;PMS_P2;Temp;Humidity;BMP_temperature;BMP_pressure;BME280_temperature;BME280_humidity;BME280_pressure;Samples;Min_cycle;Max_cycle;Signal;HPM_P1;HPM_P2
2020/12/06 00:00:48;;;;;;;2.07;0.50;;;;;;;4.62;100.00;99928.63;4980317;28;20193;-78
2020/12/06 00:03:13;;;;;;;4.20;1.17;;;;;;;4.63;100.00;99936.28;4966089;28;20270;-79
2020/12/06 00:05:39;;;;;;;4.10;0.80;;;;;;;4.63;100.00;99933.63;4969825;28;20186;-79
2020/12/06 00:08:04;;;;;;;4.33;1.10;;;;;;;4.60;100.00;99934.31;4972161;28;20265;-79
2020/12/06 00:10:30;;;;;;;2.67;0.50;;;;;;;4.60;100.00;99942.31;4975959;28;20221;-78
2020/12/06 00:12:55;;;;;;;3.03;0.70;;;;;;;4.48;100.00;99959.06;4966262;28;20196;-78
2020/12/06 00:15:21;;;;;;;4.17;1.33;;;;;;;4.50;100.00;99958.72;4973430;28;20206;-77
2020/12/06 00:17:46;;;;;;;2.57;0.90;;;;;;;4.50;100.00;99954.19;4973625;28;20698;-75
2020/12/06 00:20:12;;;;;;;2.97;0.73;;;;;;;4.53;100.00;99950.84;4970486;28;20178;-77
2020/12/06 00:22:38;;;;;;;2.97;0.80;;;;;;;4.54;100.00;99941.75;4969829;28;20213;-79
2020/12/06 00:25:05;;;;;;;3.97;1.17;;;;;;;4.55;100.00;99927.28;4969109;28;20185;-78
2020/12/06 00:27:32;;;;;;;2.37;0.67;;;;;;;4.44;100.00;99912.06;4972013;28;20499;-79
2020/12/06 00:29:58;;;;;;;4.80;1.00;;;;;;;4.50;100.00;99908.09;4971933;28;20821;-77
2020/12/06 00:32:23;;;;;;;4.33;1.07;;;;;;;4.55;100.00;99905.19;4971182;28;20449;-81
2020/12/06 00:34:49;;;;;;;2.60;0.60;;;;;;;4.63;100.00;99893.63;4958350;28;20206;-76
2020/12/06 00:37:15;;;;;;;2.70;0.83;;;;;;;4.62;100.00;99889.44;4971437;28;20191;-78
2020/12/06 00:39:43;;;;;;;3.50;0.93;;;;;;;4.57;100.00;99890.41;4971834;28;20185;-78
2020/12/06 00:42:10;;;;;;;3.50;0.77;;;;;;;4.62;100.00;99888.66;4970705;28;20449;-79
2020/12/06 00:44:36;;;;;;;2.30;0.63;;;;;;;4.64;100.00;99871.22;4972843;28;20488;-80
2020/12/06 00:47:02;;;;;;;2.30;0.73;;;;;;;4.65;100.00;99875.41;4969674;28;20437;-77
2020/12/06 00:49:27;;;;;;;2.30;0.70;;;;;;;4.63;100.00;99869.66;4985359;28;20441;-77
2020/12/06 00:51:53;;;;;;;3.77;1.20;;;;;;;4.62;100.00;99862.78;4960006;28;20675;-79
2020/12/06 00:54:20;;;;;;;3.10;0.80;;;;;;;4.67;100.00;99869.75;4953422;28;20207;-78
2020/12/06 00:56:45;;;;;;;2.53;0.90;;;;;;;4.65;100.00;99867.44;4965837;28;20536;-78
2020/12/06 00:59:11;;;;;;;4.10;0.63;;;;;;;4.63;100.00;99836.91;4972416;28;20552;-78
2020/12/06 01:01:44;;;;;;;2.00;0.43;;;;;;;4.60;100.00;99817.00;4971408;28;20182;-79
2020/12/06 01:04:09;;;;;;;3.03;1.20;;;;;;;4.62;100.00;99820.13;4969266;28;20193;-79
2020/12/06 01:06:35;;;;;;;2.77;0.83;;;;;;;4.66;100.00;99825.56;4969130;28;21025;-78
2020/12/06 01:09:00;;;;;;;3.67;1.10;;;;;;;4.68;100.00;99818.78;4971988;28;20213;-77
2020/12/06 01:11:26;;;;;;;3.10;0.70;;;;;;;4.72;100.00;99818.88;4960148;28;20269;-78
2020/12/06 01:13:52;;;;;;;3.20;0.63;;;;;;;4.77;100.00;99837.31;4987020;28;20202;-78
2020/12/06 01:16:17;;;;;;;1.90;0.47;;;;;;;4.72;100.00;99861.53;4966270;28;20186;-79
2020/12/06 01:18:42;;;;;;;4.23;1.00;;;;;;;4.76;100.00;99884.53;4970852;28;20202;-76
2020/12/06 01:21:11;;;;;;;2.50;0.73;;;;;;;4.75;100.00;99906.19;4966628;28;20265;-80
2020/12/06 01:23:37;;;;;;;4.43;0.97;;;;;;;4.70;100.00;99903.75;4966302;28;20182;-77
2020/12/06 01:26:03;;;;;;;5.40;1.00;;;;;;;4.73;100.00;99917.19;4971708;28;20460;-78
2020/12/06 01:28:28;;;;;;;2.73;0.80;;;;;;;4.79;100.00;99918.53;4986174;28;20224;-76
2020/12/06 01:30:54;;;;;;;2.90;0.73;;;;;;;4.75;100.00;99944.31;4970247;28;20442;-81
2020/12/06 01:33:19;;;;;;;2.23;0.53;;;;;;;4.71;100.00;99983.41;4970817;28;20182;-80
2020/12/06 01:35:45;;;;;;;4.47;1.27;;;;;;;4.77;100.00;99986.63;5003219;28;20655;-78
2020/12/06 01:38:10;;;;;;;3.47;1.00;;;;;;;4.81;100.00;99990.19;4971802;28;20206;-81
2020/12/06 01:40:42;;;;;;;5.80;1.47;;;;;;;4.72;100.00;99995.66;4974369;28;20193;-79
2020/12/06 01:43:09;;;;;;;3.80;0.80;;;;;;;4.75;100.00;99991.50;4987823;28;20193;-79
2020/12/06 01:45:35;;;;;;;3.10;0.70;;;;;;;4.70;100.00;99981.88;4965735;28;20422;-78
2020/12/06 01:48:01;;;;;;;3.00;1.20;;;;;;;4.76;100.00;99961.09;4989663;28;20461;-79
2020/12/06 01:50:27;;;;;;;2.70;1.00;;;;;;;4.76;100.00;99969.09;4975079;28;20453;-79
2020/12/06 01:52:52;;;;;;;3.07;0.83;;;;;;;4.73;100.00;99970.53;4971779;28;20449;-79
2020/12/06 01:55:18;;;;;;;3.00;0.80;;;;;;;4.78;100.00;99972.97;4973465;28;20222;-78
2020/12/06 01:57:44;;;;;;;3.33;0.70;;;;;;;4.77;100.00;99963.41;4969557;28;20198;-79
2020/12/06 02:00:09;;;;;;;3.40;0.80;;;;;;;4.77;100.00;99957.31;4954961;28;20446;-78
2020/12/06 02:02:36;;;;;;;2.40;0.40;;;;;;;4.73;100.00;99943.06;4995205;28;20198;-78
2020/12/06 02:05:03;;;;;;;3.20;0.50;;;;;;;4.63;100.00;99941.63;4970544;28;20179;-79
2020/12/06 02:07:30;;;;;;;2.90;0.83;;;;;;;4.64;100.00;99931.75;4969134;28;20890;-77
2020/12/06 02:09:56;;;;;;;3.03;0.57;;;;;;;4.69;100.00;99921.63;4974576;28;20816;-76
2020/12/06 02:12:21;;;;;;;3.00;0.90;;;;;;;4.72;100.00;99922.88;4973403;28;20541;-78
2020/12/06 02:14:47;;;;;;;2.40;0.73;;;;;;;4.71;100.00;99918.63;4975548;28;20216;-78
2020/12/06 02:17:12;;;;;;;2.90;0.80;;;;;;;4.72;100.00;99926.31;4975101;28;20678;-78
2020/12/06 02:19:39;;;;;;;4.00;0.90;;;;;;;4.77;100.00;99915.41;4972593;28;20186;-83
2020/12/06 02:22:04;;;;;;;3.50;0.80;;;;;;;4.75;100.00;99912.31;4973728;28;20675;-78
2020/12/06 02:24:30;;;;;;;2.47;0.97;;;;;;;4.69;100.00;99916.31;4969125;28;20478;-80
2020/12/06 02:26:55;;;;;;;3.60;0.77;;;;;;;4.66;100.00;99910.88;4974881;28;20186;-77
2020/12/06 02:29:21;;;;;;;5.87;1.20;;;;;;;4.68;100.00;99909.44;4970889;28;20201;-81
2020/12/06 02:31:47;;;;;;;3.07;0.97;;;;;;;4.65;100.00;99910.06;4973501;28;20241;-78
2020/12/06 02:34:13;;;;;;;3.30;0.70;;;;;;;4.67;100.00;99902.53;4974417;28;20210;-77
2020/12/06 02:36:39;;;;;;;4.77;0.93;;;;;;;4.54;100.00;99900.97;4974317;28;20820;-79
2020/12/06 02:39:10;;;;;;;2.40;0.60;;;;;;;4.55;100.00;99894.53;4970756;28;20527;-77
2020/12/06 02:41:41;;;;;;;2.70;0.63;;;;;;;4.62;100.00;99896.66;4965845;28;20477;-79
2020/12/06 02:44:07;;;;;;;3.73;0.87;;;;;;;4.56;100.00;99891.53;4968097;28;20961;-78
2020/12/06 02:46:34;;;;;;;2.80;0.63;;;;;;;4.46;100.00;99893.88;4956008;28;20433;-79
2020/12/06 02:48:59;;;;;;;4.50;1.13;;;;;;;4.58;100.00;99910.66;4974936;28;20866;-76
2020/12/06 02:51:25;;;;;;;2.87;0.80;;;;;;;4.69;100.00;99900.31;4974846;28;20453;-78
2020/12/06 02:53:51;;;;;;;2.83;1.00;;;;;;;4.69;100.00;99894.19;4971338;28;20214;-78
2020/12/06 02:56:17;;;;;;;3.43;0.90;;;;;;;4.72;100.00;99894.31;4972011;28;20186;-79
2020/12/06 02:58:42;;;;;;;3.37;0.90;;;;;;;4.70;100.00;99885.09;4972303;28;20449;-78
2020/12/06 03:01:08;;;;;;;2.90;1.17;;;;;;;4.58;100.00;99877.88;4968204;28;20189;-77
2020/12/06 03:03:33;;;;;;;7.03;1.63;;;;;;;4.57;100.00;99879.75;4972401;28;20273;-77
2020/12/06 03:05:59;;;;;;;2.00;0.67;;;;;;;4.71;100.00;99886.63;4972646;28;20562;-78
2020/12/06 03:08:24;;;;;;;2.70;0.60;;;;;;;4.76;100.00;99889.09;4973944;28;20217;-78
2020/12/06 03:10:50;;;;;;;1.60;0.40;;;;;;;4.82;100.00;99893.84;4963562;28;20182;-76
2020/12/06 03:13:15;;;;;;;2.60;1.13;;;;;;;4.85;100.00;99901.19;4973696;28;20689;-78
2020/12/06 03:15:41;;;;;;;3.20;0.90;;;;;;;4.89;100.00;99914.63;4974629;28;20570;-78
2020/12/06 03:18:06;;;;;;;1.90;0.40;;;;;;;4.91;100.00;99915.88;4968927;28;20203;-78
2020/12/06 03:20:32;;;;;;;2.57;0.87;;;;;;;4.95;100.00;99929.31;4973672;28;20194;-78
2020/12/06 03:22:59;;;;;;;2.63;0.83;;;;;;;4.94;100.00;99920.50;4962521;28;20183;-79
2020/12/06 03:25:25;;;;;;;2.63;0.60;;;;;;;4.95;100.00;99911.41;4975092;28;20174;-79
2020/12/06 03:27:50;;;;;;;3.13;0.73;;;;;;;4.92;100.00;99908.63;4964390;28;20509;-78
2020/12/06 03:30:16;;;;;;;2.63;0.70;;;;;;;4.90;100.00;99902.84;4976430;28;20449;-79
2020/12/06 03:32:41;;;;;;;3.67;0.80;;;;;;;4.92;100.00;99888.06;4975327;28;20186;-79
2020/12/06 03:35:07;;;;;;;3.73;1.10;;;;;;;4.93;100.00;99894.19;4973466;28;20258;-79
2020/12/06 03:37:33;;;;;;;3.67;1.20;;;;;;;4.94;100.00;99885.06;4963568;28;20210;-79
2020/12/06 03:39:58;;;;;;;2.37;0.67;;;;;;;5.00;100.00;99889.06;4957332;28;20210;-79
2020/12/06 03:42:24;;;;;;;2.77;0.70;;;;;;;5.05;100.00;99872.84;4976634;28;20182;-78
2020/12/06 03:44:49;;;;;;;4.30;0.90;;;;;;;5.08;100.00;99872.16;4974794;28;20557;-78
2020/12/06 03:47:15;;;;;;;3.20;0.80;;;;;;;5.05;100.00;99854.91;4970204;28;20187;-79
2020/12/06 03:49:41;;;;;;;2.83;1.00;;;;;;;5.06;100.00;99861.03;4970586;28;20190;-78
2020/12/06 03:52:06;;;;;;;2.17;0.50;;;;;;;5.09;100.00;99871.03;4976230;28;20433;-79
2020/12/06 03:54:31;;;;;;;3.37;0.80;;;;;;;5.10;100.00;99873.38;4975244;28;20245;-78
2020/12/06 03:56:57;;;;;;;4.23;1.17;;;;;;;5.10;100.00;99877.91;4970900;28;20281;-78
2020/12/06 03:59:22;;;;;;;1.60;0.40;;;;;;;5.11;100.00;99877.56;4976704;28;20206;-79
2020/12/06 04:01:48;;;;;;;2.90;0.83;;;;;;;5.13;100.00;99880.69;4966411;28;22263;-77
2020/12/06 04:04:13;;;;;;;2.80;0.87;;;;;;;5.15;100.00;99875.78;4956115;28;20182;-78
2020/12/06 04:06:39;;;;;;;3.20;0.97;;;;;;;5.18;100.00;99872.47;4933720;28;20575;-79
2020/12/06 04:09:04;;;;;;;2.17;0.80;;;;;;;5.22;100.00;99869.91;4975788;28;20200;-79
2020/12/06 04:11:30;;;;;;;2.93;0.93;;;;;;;5.23;100.00;99863.44;4971569;28;20501;-79
2020/12/06 04:13:55;;;;;;;2.50;0.60;;;;;;;5.22;100.00;99849.31;4972923;28;20221;-79
2020/12/06 04:16:21;;;;;;;2.97;0.73;;;;;;;5.21;100.00;99837.09;4968181;28;20190;-79
2020/12/06 04:18:46;;;;;;;2.57;0.90;;;;;;;5.18;100.00;99827.09;4968334;28;20297;-79
2020/12/06 04:21:12;;;;;;;2.60;0.67;;;;;;;5.20;100.00;99826.75;4975395;28;20185;-78
2020/12/06 04:23:40;;;;;;;3.13;0.70;;;;;;;5.20;100.00;99802.75;5004863;28;20193;-78
2020/12/06 04:26:06;;;;;;;3.60;0.73;;;;;;;5.20;100.00;99810.75;4976070;28;20232;-78
2020/12/06 04:28:32;;;;;;;3.30;0.73;;;;;;;5.19;100.00;99817.97;4972146;28;20480;-78
2020/12/06 04:30:57;;;;;;;4.20;1.00;;;;;;;5.19;100.00;99819.84;4974486;28;20229;-79
2020/12/06 04:33:23;;;;;;;1.90;0.47;;;;;;;5.17;100.00;99814.06;4976573;28;20639;-79
2020/12/06 04:35:48;;;;;;;3.10;0.60;;;;;;;5.19;100.00;99815.28;4972973;28;20476;-78
2020/12/06 04:38:14;;;;;;;2.67;0.80;;;;;;;5.20;100.00;99822.19;4989743;28;20225;-78
2020/12/06 04:40:40;;;;;;;1.77;0.50;;;;;;;5.23;100.00;99816.19;4971637;28;20273;-79
2020/12/06 04:43:06;;;;;;;2.37;0.60;;;;;;;5.28;100.00;99823.94;4973404;28;20187;-79
2020/12/06 04:45:32;;;;;;;4.60;1.43;;;;;;;5.29;100.00;99822.03;4968876;28;20182;-79
2020/12/06 04:48:25;;;;;;;2.90;0.70;;;;;;;5.29;100.00;99824.72;4973200;28;20462;-79
2020/12/06 04:50:54;;;;;;;2.27;0.77;;;;;;;5.28;100.00;99818.59;4953576;28;20456;-79
2020/12/06 04:53:26;;;;;;;2.40;0.70;;;;;;;5.30;100.00;99808.34;4950281;28;20454;-78
2020/12/06 04:55:54;;;;;;;3.70;0.60;;;;;;;5.32;100.00;99792.03;4963459;28;20453;-79
2020/12/06 04:58:25;;;;;;;4.27;1.30;;;;;;;5.31;100.00;99801.13;4949896;28;20994;-79
2020/12/06 05:00:51;;;;;;;4.33;0.83;;;;;;;5.31;100.00;99798.47;4957790;28;20457;-79
2020/12/06 05:03:38;;;;;;;3.57;1.00;;;;;;;5.33;100.00;99797.00;4947423;28;20829;-79
2020/12/06 05:06:05;;;;;;;3.20;0.90;;;;;;;5.34;100.00;99787.13;4933065;29;20502;-79
2020/12/06 05:08:34;;;;;;;3.67;1.10;;;;;;;5.35;100.00;99775.31;4933560;29;20478;-79
2020/12/06 05:11:00;;;;;;;3.60;1.20;;;;;;;5.35;100.00;99784.09;4934484;29;20781;-79
2020/12/06 05:13:25;;;;;;;3.57;0.47;;;;;;;5.22;100.00;99787.94;4935681;29;20537;-79
2020/12/06 05:15:54;;;;;;;2.80;0.80;;;;;;;5.27;100.00;99789.59;4935892;29;20644;-78
2020/12/06 05:18:19;;;;;;;2.00;0.80;;;;;;;5.31;100.00;99790.47;4915415;29;20214;-79
2020/12/06 05:20:45;;;;;;;1.97;0.40;;;;;;;5.33;100.00;99791.69;4940586;29;21025;-78
2020/12/06 05:23:12;;;;;;;4.13;1.20;;;;;;;5.34;100.00;99792.47;4934689;29;20191;-78
2020/12/06 05:25:38;;;;;;;3.03;0.80;;;;;;;5.33;100.00;99786.34;4935962;29;20430;-79
2020/12/06 05:28:03;;;;;;;4.23;0.90;;;;;;;5.37;100.00;99781.09;4956261;28;20469;-79
2020/12/06 05:30:29;;;;;;;4.00;1.47;;;;;;;5.39;100.00;99771.63;4973598;28;20446;-79
2020/12/06 05:32:57;;;;;;;3.67;1.07;;;;;;;5.41;100.00;99777.41;4963667;28;20193;-79
2020/12/06 05:35:23;;;;;;;2.00;0.30;;;;;;;5.45;100.00;99783.63;4973884;28;20334;-79
2020/12/06 05:37:50;;;;;;;3.10;0.87;;;;;;;5.44;100.00;99773.25;4949984;28;20567;-78
2020/12/06 05:40:16;;;;;;;5.40;1.30;;;;;;;5.47;100.00;99781.38;4963125;28;21059;-79
2020/12/06 05:42:43;;;;;;;3.80;0.70;;;;;;;5.47;100.00;99772.59;4972048;28;20459;-79
2020/12/06 05:45:10;;;;;;;2.97;0.73;;;;;;;5.49;100.00;99771.13;4974302;28;20551;-77
2020/12/06 05:47:36;;;;;;;2.50;0.53;;;;;;;5.46;100.00;99776.34;4965800;28;20454;-79
2020/12/06 05:50:03;;;;;;;2.37;0.93;;;;;;;5.52;100.00;99782.25;4968206;28;20449;-78
2020/12/06 05:52:30;;;;;;;2.97;0.90;;;;;;;5.48;100.00;99774.91;4975902;28;21063;-78
2020/12/06 05:54:56;;;;;;;3.17;1.10;;;;;;;5.47;100.00;99776.03;4965742;28;20476;-78
2020/12/06 05:57:28;;;;;;;2.07;0.43;;;;;;;5.49;100.00;99771.13;4974442;28;20493;-78
2020/12/06 05:59:58;;;;;;;3.43;0.87;;;;;;;5.55;100.00;99770.88;4977829;28;20589;-78
2020/12/06 06:02:24;;;;;;;2.30;0.70;;;;;;;5.56;100.00;99762.50;4975724;28;20449;-78
2020/12/06 06:04:51;;;;;;;2.30;0.83;;;;;;;5.57;100.00;99749.94;4971805;28;20512;-78
2020/12/06 06:07:40;;;;;;;3.40;1.03;;;;;;;5.59;100.00;99745.03;4971543;28;20481;-77
2020/12/06 06:10:06;;;;;;;4.00;1.00;;;;;;;5.64;100.00;99737.56;4992756;28;20443;-77
2020/12/06 06:12:42;;;;;;;3.80;1.20;;;;;;;5.63;100.00;99746.69;5008304;28;20941;-77
2020/12/06 06:15:08;;;;;;;2.50;0.50;;;;;;;5.64;100.00;99736.75;5006180;28;21071;-78
2020/12/06 06:17:33;;;;;;;3.30;1.13;;;;;;;5.66;100.00;99740.66;4991792;28;20571;-77
2020/12/06 06:19:59;;;;;;;2.60;0.90;;;;;;;5.69;100.00;99739.19;5008988;28;20371;-79
2020/12/06 06:22:35;;;;;;;3.10;0.83;;;;;;;5.69;100.00;99733.84;4965379;28;20209;-76
2020/12/06 06:25:03;;;;;;;3.50;0.70;;;;;;;5.73;100.00;99734.72;4999078;28;20184;-78
2020/12/06 06:27:35;;;;;;;2.93;0.53;;;;;;;5.67;100.00;99733.44;5006693;28;20472;-78
2020/12/06 06:30:06;;;;;;;2.40;0.30;;;;;;;5.71;100.00;99734.28;4990706;28;20520;-78
2020/12/06 06:32:32;;;;;;;2.00;0.40;;;;;;;5.73;100.00;99732.81;5008316;28;20446;-77
2020/12/06 06:35:00;;;;;;;3.67;1.13;;;;;;;5.77;100.00;99725.66;4974525;28;20787;-78
2020/12/06 06:37:30;;;;;;;3.30;0.53;;;;;;;5.79;100.00;99728.00;4991606;28;20463;-76
2020/12/06 06:40:01;;;;;;;3.00;0.97;;;;;;;5.79;100.00;99714.66;5003155;28;21212;-76
2020/12/06 06:42:28;;;;;;;7.47;1.30;;;;;;;5.84;100.00;99709.06;4996153;28;20452;-76
2020/12/06 06:45:11;;;;;;;2.97;1.00;;;;;;;5.88;100.00;99709.91;4988673;28;20467;-76
2020/12/06 06:47:38;;;;;;;3.87;0.90;;;;;;;5.91;100.00;99714.56;4976945;28;21001;-78
2020/12/06 06:50:06;;;;;;;3.97;1.13;;;;;;;5.94;100.00;99721.91;4970837;28;20450;-78
2020/12/06 06:52:33;;;;;;;2.77;0.93;;;;;;;5.94;100.00;99724.56;4977291;28;20441;-77
2020/12/06 06:54:59;;;;;;;3.07;0.63;;;;;;;5.94;100.00;99737.94;4988778;28;20461;-77
2020/12/06 06:57:28;;;;;;;2.07;0.67;;;;;;;5.90;100.00;99743.19;4973089;28;21399;-77
2020/12/06 06:59:54;;;;;;;2.87;0.73;;;;;;;5.94;100.00;99741.34;4974483;28;20190;-77
2020/12/06 07:02:42;;;;;;;5.23;1.47;;;;;;;5.96;100.00;99728.44;4973673;28;20460;-76
2020/12/06 07:05:21;;;;;;;3.73;1.13;;;;;;;5.86;100.00;99736.19;4957768;28;20448;-77
2020/12/06 07:07:53;;;;;;;3.23;0.50;;;;;;;5.87;100.00;99735.84;4974599;28;20479;-77
2020/12/06 07:10:24;;;;;;;3.80;0.70;;;;;;;5.93;100.00;99744.38;4972083;28;20451;-76
2020/12/06 07:12:53;;;;;;;5.23;1.20;;;;;;;5.98;100.00;99747.56;4972921;28;20532;-76
2020/12/06 07:15:23;;;;;;;3.40;1.00;;;;;;;6.02;100.00;99742.31;4966927;28;20538;-77
2020/12/06 07:17:50;;;;;;;2.27;0.70;;;;;;;5.97;100.00;99730.00;4966902;28;20461;-77
2020/12/06 07:20:18;;;;;;;3.53;0.83;;;;;;;6.05;100.00;99715.69;4974908;28;20456;-77
2020/12/06 07:22:46;;;;;;;3.27;1.00;;;;;;;6.09;100.00;99700.50;4987283;28;20461;-77
2020/12/06 07:25:13;;;;;;;2.70;0.70;;;;;;;6.10;100.00;99707.38;4972397;28;20530;-77
2020/12/06 07:27:39;;;;;;;2.00;0.57;;;;;;;6.14;100.00;99699.44;4971654;28;21034;-77
2020/12/06 07:30:07;;;;;;;2.80;0.67;;;;;;;6.15;100.00;99707.13;4973560;28;20428;-77
2020/12/06 07:32:32;;;;;;;2.60;0.60;;;;;;;6.17;100.00;99704.09;4969080;28;20458;-77
2020/12/06 07:34:58;;;;;;;3.63;0.80;;;;;;;6.17;100.00;99702.22;4966023;28;20593;-77
2020/12/06 07:37:24;;;;;;;3.43;0.70;;;;;;;6.13;100.00;99703.25;4967153;28;20465;-77
2020/12/06 07:39:50;;;;;;;2.27;0.60;;;;;;;6.17;100.00;99698.75;4966842;28;20897;-77
2020/12/06 07:42:20;;;;;;;5.17;1.33;;;;;;;6.23;100.00;99705.38;4963651;28;20257;-77
2020/12/06 07:44:48;;;;;;;3.50;0.73;;;;;;;6.25;100.00;99708.47;4971722;28;20445;-77
2020/12/06 07:47:14;;;;;;;3.73;0.60;;;;;;;6.25;100.00;99703.13;4972607;28;20433;-77
2020/12/06 07:50:00;;;;;;;3.70;0.80;;;;;;;6.27;100.00;99698.22;4960447;28;20456;-77
2020/12/06 07:52:33;;;;;;;3.83;1.10;;;;;;;6.28;100.00;99702.44;4966530;28;20548;-77
2020/12/06 07:55:00;;;;;;;2.30;0.60;;;;;;;6.34;100.00;99707.16;4959968;28;20486;-77
2020/12/06 07:57:38;;;;;;;2.83;0.70;;;;;;;6.36;100.00;99699.56;4960774;28;20813;-77
2020/12/06 08:00:07;;;;;;;2.80;1.20;;;;;;;6.37;100.00;99697.66;4962176;28;20433;-77
2020/12/06 08:02:35;;;;;;;3.57;1.10;;;;;;;6.38;100.00;99694.66;4982838;28;20571;-77
2020/12/06 08:05:02;;;;;;;3.00;1.03;;;;;;;6.42;100.00;99696.59;4960130;28;20780;-77
2020/12/06 08:07:36;;;;;;;2.90;0.80;;;;;;;6.39;100.00;99696.19;4966961;28;20462;-77
2020/12/06 08:10:03;;;;;;;3.07;0.73;;;;;;;6.41;100.00;99705.78;4963674;28;20444;-77
2020/12/06 08:12:32;;;;;;;4.27;0.90;;;;;;;6.46;100.00;99706.25;4982100;28;20438;-77
2020/12/06 08:15:05;;;;;;;4.30;1.23;;;;;;;6.48;100.00;99712.03;4968743;28;20484;-77
2020/12/06 08:17:49;;;;;;;3.00;1.10;;;;;;;6.49;100.00;99702.88;4970283;28;21034;-77
2020/12/06 08:20:28;;;;;;;2.63;0.70;;;;;;;6.57;100.00;99682.41;4965292;28;20542;-77
2020/12/06 08:22:55;;;;;;;4.20;1.40;;;;;;;6.61;100.00;99702.75;4957663;28;20926;-77
2020/12/06 08:25:27;;;;;;;2.90;0.70;;;;;;;6.59;100.00;99704.22;4972181;28;20425;-77
2020/12/06 08:27:54;;;;;;;3.53;0.80;;;;;;;6.60;100.00;99690.50;4960502;28;21060;-77
2020/12/06 08:30:22;;;;;;;5.17;1.33;;;;;;;6.58;100.00;99687.38;4972379;28;21232;-77
2020/12/06 08:32:51;;;;;;;3.30;0.97;;;;;;;6.59;100.00;99680.94;4971090;28;20441;-77
2020/12/06 08:35:17;;;;;;;4.10;1.00;;;;;;;6.61;100.00;99678.69;4971189;28;21040;-77
2020/12/06 08:37:43;;;;;;;2.30;0.57;;;;;;;6.66;100.00;99682.97;4958616;28;20488;-77
2020/12/06 08:40:08;;;;;;;2.33;0.60;;;;;;;6.68;100.00;99694.84;4970781;28;20679;-77
2020/12/06 08:42:34;;;;;;;2.30;0.67;;;;;;;6.67;100.00;99679.16;4968664;28;20189;-77
2020/12/06 08:45:01;;;;;;;2.03;0.50;;;;;;;6.69;100.00;99672.34;4969849;28;20181;-76
2020/12/06 08:47:39;;;;;;;3.13;0.80;;;;;;;6.71;100.00;99672.00;4967037;28;20334;-77
2020/12/06 08:50:07;;;;;;;2.10;0.50;;;;;;;6.74;100.00;99661.34;4969655;28;20484;-77
2020/12/06 08:52:33;;;;;;;2.57;0.60;;;;;;;6.75;100.00;99656.78;4965598;28;21205;-77
2020/12/06 08:54:59;;;;;;;3.50;0.80;;;;;;;6.75;100.00;99654.88;4953057;28;20473;-77
2020/12/06 08:57:27;;;;;;;3.40;0.87;;;;;;;6.79;100.00;99650.38;4967676;28;20206;-77
2020/12/06 08:59:53;;;;;;;3.90;1.30;;;;;;;6.77;100.00;99655.31;4971725;28;20552;-77
2020/12/06 09:02:24;;;;;;;3.80;1.07;;;;;;;6.83;100.00;99659.22;4968921;28;20452;-76
2020/12/06 09:04:51;;;;;;;3.60;0.87;;;;;;;6.85;100.00;99653.53;4970918;28;20790;-77
2020/12/06 09:07:16;;;;;;;3.00;0.67;;;;;;;6.72;100.00;99655.56;4968064;28;20443;-77
2020/12/06 09:09:42;;;;;;;3.80;1.07;;;;;;;6.77;100.00;99649.97;4968769;28;20437;-76
2020/12/06 09:12:08;;;;;;;4.60;1.30;;;;;;;6.74;100.00;99645.31;4969594;28;21063;-77
2020/12/06 09:14:34;;;;;;;3.87;1.00;;;;;;;6.77;100.00;99655.31;4970476;28;20194;-77
2020/12/06 09:16:59;;;;;;;2.20;0.90;;;;;;;6.81;100.00;99652.69;4962367;28;20804;-77
2020/12/06 09:19:25;;;;;;;3.30;1.00;;;;;;;6.84;100.00;99642.06;4961836;28;20851;-77
2020/12/06 09:21:50;;;;;;;1.93;0.50;;;;;;;6.79;100.00;99645.03;4968811;28;20192;-76
2020/12/06 09:24:36;;;;;;;2.47;0.60;;;;;;;6.84;100.00;99643.94;4965996;28;20178;-77
2020/12/06 09:27:02;;;;;;;3.17;0.70;;;;;;;6.80;100.00;99643.09;4968657;28;20241;-76
2020/12/06 09:29:30;;;;;;;3.37;0.63;;;;;;;6.92;100.00;99643.75;4957312;28;20591;-77
2020/12/06 09:31:55;;;;;;;3.90;1.00;;;;;;;6.93;100.00;99637.25;4951361;28;20532;-77
2020/12/06 09:34:21;;;;;;;2.43;0.50;;;;;;;6.95;100.00;99629.63;4967402;28;20231;-77
2020/12/06 09:36:46;;;;;;;3.10;0.87;;;;;;;7.05;100.00;99631.72;4968494;28;20189;-77
2020/12/06 09:39:11;;;;;;;3.00;0.83;;;;;;;7.10;100.00;99626.06;4959253;28;20301;-77
2020/12/06 09:41:38;;;;;;;2.50;0.57;;;;;;;7.17;100.00;99630.78;4969040;28;20186;-77
2020/12/06 09:44:05;;;;;;;2.40;0.80;;;;;;;7.18;100.00;99627.00;4965928;28;20202;-77
2020/12/06 09:46:31;;;;;;;3.87;1.10;;;;;;;7.20;100.00;99609.41;4944089;28;20457;-76
2020/12/06 09:48:57;;;;;;;5.30;1.30;;;;;;;7.19;100.00;99599.06;4967162;28;20615;-77
2020/12/06 09:51:23;;;;;;;3.83;1.20;;;;;;;7.22;100.00;99591.09;4964129;28;20194;-76
2020/12/06 09:53:49;;;;;;;3.43;0.83;;;;;;;7.23;100.00;99592.66;4968491;28;20197;-77
2020/12/06 09:56:15;;;;;;;4.00;1.20;;;;;;;7.24;100.00;99593.41;4967253;28;20227;-77
2020/12/06 09:58:40;;;;;;;4.00;1.00;;;;;;;7.23;100.00;99581.94;4965564;28;20530;-77
2020/12/06 10:01:06;;;;;;;3.70;1.10;;;;;;;7.25;100.00;99590.41;4967440;28;20182;-77
2020/12/06 10:03:31;;;;;;;2.47;0.77;;;;;;;7.29;100.00;99590.44;4968066;28;20201;-77
2020/12/06 10:05:57;;;;;;;5.00;1.13;;;;;;;7.26;100.00;99589.25;4964620;28;20204;-77
2020/12/06 10:08:22;;;;;;;3.40;0.90;;;;;;;7.23;100.00;99595.34;4952874;28;20214;-76
2020/12/06 10:10:48;;;;;;;4.53;1.10;;;;;;;7.28;100.00;99594.25;4955740;28;20193;-78
2020/12/06 10:13:14;;;;;;;4.90;1.13;;;;;;;7.29;100.00;99585.88;4973571;28;20189;-78
2020/12/06 10:15:42;;;;;;;2.70;0.80;;;;;;;7.24;100.00;99583.47;4970940;28;20465;-78
2020/12/06 10:18:08;;;;;;;3.00;0.90;;;;;;;7.28;100.00;99581.63;4970132;28;20384;-78
2020/12/06 10:20:33;;;;;;;3.03;0.80;;;;;;;7.22;100.00;99591.09;4968674;28;20902;-78
2020/12/06 10:22:59;;;;;;;7.70;1.17;;;;;;;7.29;100.00;99591.22;4970184;28;20532;-78
2020/12/06 10:25:25;;;;;;;3.90;0.97;;;;;;;7.33;100.00;99591.28;4971804;28;20238;-78
2020/12/06 10:27:50;;;;;;;3.90;1.20;;;;;;;7.28;100.00;99592.34;4974930;28;20505;-78
2020/12/06 10:30:16;;;;;;;3.50;1.13;;;;;;;7.37;100.00;99594.00;4992851;28;20178;-79
2020/12/06 10:32:41;;;;;;;3.40;1.13;;;;;;;7.32;100.00;99603.88;4979666;28;20198;-78
2020/12/06 10:35:07;;;;;;;3.73;1.10;;;;;;;7.38;100.00;99606.25;4981838;28;20470;-79
2020/12/06 10:37:32;;;;;;;5.50;1.43;;;;;;;7.39;100.00;99615.84;4976573;28;20599;-78
2020/12/06 10:39:58;;;;;;;3.20;1.00;;;;;;;7.42;100.00;99610.53;4979743;28;20186;-78
2020/12/06 10:42:23;;;;;;;3.83;1.60;;;;;;;7.40;100.00;99617.38;4970640;28;20221;-78
2020/12/06 10:44:50;;;;;;;4.10;0.90;;;;;;;7.37;100.00;99618.09;4974277;28;20196;-79
2020/12/06 10:47:18;;;;;;;3.57;1.10;;;;;;;7.41;100.00;99608.22;4976130;28;20623;-79
2020/12/06 10:49:44;;;;;;;2.73;0.93;;;;;;;7.42;100.00;99613.22;4979342;28;20425;-78
2020/12/06 10:52:10;;;;;;;2.80;1.00;;;;;;;7.50;100.00;99608.75;4979886;28;20456;-78
2020/12/06 10:54:36;;;;;;;4.00;0.73;;;;;;;7.48;100.00;99603.75;4979988;28;20297;-78
2020/12/06 10:57:02;;;;;;;5.30;1.37;;;;;;;7.51;100.00;99607.63;4991192;28;20484;-78
2020/12/06 10:59:28;;;;;;;3.53;0.93;;;;;;;7.51;100.00;99599.59;4992961;28;20802;-78
2020/12/06 11:01:53;;;;;;;3.83;1.00;;;;;;;7.50;100.00;99593.44;4977771;28;20449;-78
2020/12/06 11:04:19;;;;;;;3.10;1.00;;;;;;;7.46;100.00;99594.53;4971746;28;20174;-79
2020/12/06 11:06:44;;;;;;;4.23;1.10;;;;;;;7.44;100.00;99583.41;4974715;28;20190;-79
2020/12/06 11:09:10;;;;;;;4.57;1.50;;;;;;;7.46;100.00;99567.75;4964132;28;20206;-79
2020/12/06 11:11:35;;;;;;;2.33;0.60;;;;;;;7.47;100.00;99558.59;4957543;28;20182;-80
2020/12/06 11:14:01;;;;;;;4.30;1.10;;;;;;;7.45;100.00;99571.56;4981208;28;20202;-80
2020/12/06 11:16:26;;;;;;;3.83;1.43;;;;;;;7.50;100.00;99577.38;4954323;28;20185;-80
2020/12/06 11:18:52;;;;;;;4.47;1.30;;;;;;;7.52;100.00;99568.97;4959893;28;20226;-78
2020/12/06 11:21:19;;;;;;;3.67;1.23;;;;;;;7.53;100.00;99559.81;4958294;28;20246;-78
2020/12/06 11:23:47;;;;;;;6.27;1.63;;;;;;;7.54;100.00;99561.34;4957063;28;20524;-79
2020/12/06 11:26:13;;;;;;;2.50;1.10;;;;;;;7.54;100.00;99564.03;4962702;28;20439;-79
2020/12/06 11:28:39;;;;;;;4.50;1.50;;;;;;;7.56;100.00;99564.44;4965876;28;20466;-80
2020/12/06 11:31:06;;;;;;;4.73;1.40;;;;;;;7.59;100.00;99571.78;4971364;28;20495;-78
2020/12/06 11:33:31;;;;;;;4.67;1.27;;;;;;;7.58;100.00;99575.56;4972267;28;20449;-80